Time;durP1;ratioP1;P1;durP2;ratioP2;P2;SDS_P1;SDS_P2;PMS_P1;PMS_P2;Temp;Humidity;BMP_temperature;BMP_pressure;BME280_temperature;BME280_humidity;BME280_pressure;Samples;Min_cycle;Max_cycle;Signal;HPM_P1;HPM_P2
2022/09/05 00:01:58;;;;;;;5.30;4.90;;;17.80;99.90;;;;;;5052265;28;20095;-30
2022/09/05 00:04:54;;;;;;;5.35;4.85;;;17.80;99.90;;;;;;5034431;28;20081;-31
2022/09/05 00:08:05;;;;;;;5.57;5.10;;;17.70;99.90;;;;;;5034057;28;20087;-30
2022/09/05 00:10:40;;;;;;;5.80;5.30;;;17.70;99.90;;;;;;5009832;28;20489;-29
2022/09/05 00:13:16;;;;;;;5.70;5.03;;;17.60;99.90;;;;;;5034416;28;20052;-30
2022/09/05 00:16:06;;;;;;;7.20;5.47;;;17.60;99.90;;;;;;5034361;28;20540;-30
2022/09/05 00:18:51;;;;;;;6.15;5.65;;;17.50;99.90;;;;;;5034361;28;20386;-30
2022/09/05 00:21:29;;;;;;;6.50;5.65;;;17.50;99.90;;;;;;5034176;28;20037;-30
2022/09/05 00:24:01;;;;;;;6.20;5.10;;;17.50;99.90;;;;;;5017332;28;20041;-30
2022/09/05 00:26:27;;;;;;;6.18;5.60;;;17.50;99.90;;;;;;5034044;28;20037;-29
2022/09/05 00:29:01;;;;;;;5.50;5.10;;;17.40;99.90;;;;;;5033980;28;20126;-30
2022/09/05 00:31:45;;;;;;;6.20;5.70;;;17.40;99.90;;;;;;5033780;28;20048;-30
2022/09/05 00:34:23;;;;;;;6.30;5.70;;;17.40;99.90;;;;;;5034116;28;20044;-30
2022/09/05 00:36:53;;;;;;;5.88;5.38;;;17.40;99.90;;;;;;5033865;28;20045;-30
2022/09/05 00:39:30;;;;;;;6.00;5.47;;;17.40;99.90;;;;;;5034149;28;20394;-31
2022/09/05 00:42:00;;;;;;;5.78;5.28;;;17.40;99.90;;;;;;5033823;28;20045;-31
2022/09/05 00:44:30;;;;;;;6.05;5.55;;;17.40;99.90;;;;;;5034094;28;20508;-29
2022/09/05 00:47:09;;;;;;;6.30;5.80;;;17.30;99.90;;;;;;5033894;28;20028;-30
2022/09/05 00:49:48;;;;;;;6.63;6.03;;;17.30;99.90;;;;;;5034046;28;20409;-29
2022/09/05 00:52:31;;;;;;;6.38;5.80;;;17.30;99.90;;;;;;5033917;28;20122;-29
2022/09/05 00:55:51;;;;;;;5.57;4.97;;;17.30;99.90;;;;;;5033982;28;20037;-30
2022/09/05 00:58:40;;;;;;;6.82;6.05;;;17.30;99.90;;;;;;4977597;28;20120;-30
2022/09/05 01:01:29;;;;;;;6.65;6.05;;;17.20;99.90;;;;;;5033662;28;20055;-30
2022/09/05 01:04:12;;;;;;;6.63;5.90;;;17.20;99.90;;;;;;5033626;28;20043;-30
2022/09/05 01:07:06;;;;;;;6.55;5.95;;;17.20;99.90;;;;;;5033606;28;20041;-29
2022/09/05 01:10:04;;;;;;;6.85;5.90;;;17.20;99.90;;;;;;5051439;28;20041;-30
2022/09/05 01:13:01;;;;;;;7.45;6.03;;;17.20;99.90;;;;;;5036036;28;20051;-29
2022/09/05 01:15:46;;;;;;;6.22;5.72;;;17.10;99.90;;;;;;5037600;28;20041;-30
2022/09/05 01:18:46;;;;;;;6.30;5.68;;;17.10;99.90;;;;;;5037214;28;20048;-30
2022/09/05 01:21:30;;;;;;;7.38;6.07;;;17.10;99.90;;;;;;5037410;28;20482;-30
2022/09/05 01:24:27;;;;;;;7.28;5.80;;;17.10;99.90;;;;;;5037060;28;20049;-29
2022/09/05 01:26:58;;;;;;;6.40;5.90;;;17.00;99.90;;;;;;5037060;28;20044;-30
2022/09/05 01:29:32;;;;;;;6.38;5.72;;;17.00;99.90;;;;;;5037264;28;20041;-30
2022/09/05 01:31:58;;;;;;;6.82;6.32;;;17.00;99.90;;;;;;5055102;28;20037;-29
2022/09/05 01:34:31;;;;;;;6.82;6.20;;;17.00;99.90;;;;;;5037104;28;20087;-29
2022/09/05 01:37:21;;;;;;;7.50;6.70;;;16.90;99.90;;;;;;5036983;28;20486;-31
2022/09/05 01:39:57;;;;;;;6.18;5.63;;;16.90;99.90;;;;;;5037118;28;20068;-30
2022/09/05 01:42:35;;;;;;;6.90;6.22;;;16.90;99.90;;;;;;5036755;28;20387;-31
2022/09/05 01:45:09;;;;;;;7.80;6.28;;;16.80;99.90;;;;;;5037050;28;20044;-30
2022/09/05 01:47:38;;;;;;;6.72;6.22;;;16.80;99.90;;;;;;5036662;28;20080;-30
2022/09/05 01:50:09;;;;;;;7.88;6.38;;;16.70;99.90;;;;;;5036592;28;20041;-29
2022/09/05 01:52:49;;;;;;;6.78;6.22;;;16.80;99.90;;;;;;5036902;28;20095;-29
2022/09/05 01:55:18;;;;;;;6.90;6.30;;;16.70;99.90;;;;;;5036534;28;20044;-30
2022/09/05 01:57:54;;;;;;;7.13;6.43;;;16.70;99.90;;;;;;5036822;28;20427;-30
2022/09/05 02:00:45;;;;;;;6.88;6.20;;;16.70;99.90;;;;;;5036394;28;20074;-30
2022/09/05 02:03:33;;;;;;;6.70;6.10;;;16.70;99.90;;;;;;5020192;28;20049;-30
2022/09/05 02:06:10;;;;;;;6.65;6.15;;;16.70;99.90;;;;;;5036332;28;20041;-30
2022/09/05 02:08:48;;;;;;;6.97;6.38;;;16.70;99.90;;;;;;5019853;28;20055;-30
2022/09/05 02:11:15;;;;;;;7.88;6.60;;;16.60;99.90;;;;;;5036207;28;20041;-30
2022/09/05 02:14:38;;;;;;;6.78;6.28;;;16.60;99.90;;;;;;5036582;28;20446;-29
2022/09/05 02:17:41;;;;;;;7.28;6.75;;;16.50;99.90;;;;;;4956890;28;20489;-29
2022/09/05 02:20:29;;;;;;;8.10;7.33;;;16.50;99.90;;;;;;4971621;28;20050;-29
2022/09/05 02:23:17;;;;;;;7.75;7.15;;;16.50;99.90;;;;;;5035672;28;20045;-29
2022/09/05 02:25:52;;;;;;;7.00;6.40;;;16.40;99.90;;;;;;5030801;28;20119;-30
2022/09/05 02:28:43;;;;;;;7.65;6.95;;;16.40;99.90;;;;;;5034440;28;20037;-29
2022/09/05 02:31:19;;;;;;;7.38;6.78;;;16.40;99.90;;;;;;5035260;28;20036;-29
2022/09/05 02:34:12;;;;;;;8.18;7.38;;;16.30;99.90;;;;;;5053572;28;20051;-29
2022/09/05 02:36:44;;;;;;;8.13;7.43;;;16.30;99.90;;;;;;5022675;28;20041;-29
2022/09/05 02:39:34;;;;;;;7.78;7.18;;;16.30;99.90;;;;;;5031777;28;20102;-30
2022/09/05 02:42:35;;;;;;;8.82;7.90;;;16.30;99.90;;;;;;5029216;28;20418;-29
2022/09/05 02:45:19;;;;;;;8.85;7.95;;;16.20;99.90;;;;;;5029427;28;20063;-29
2022/09/05 02:47:50;;;;;;;;;;;16.20;99.90;;;;;;5027405;28;20448;-30
2022/09/05 02:50:33;;;;;;;7.53;6.93;;;16.10;99.90;;;;;;5035113;28;20012;-30
2022/09/05 02:53:00;;;;;;;7.88;7.10;;;16.10;99.90;;;;;;5015767;28;20044;-28
2022/09/05 02:55:38;;;;;;;7.57;6.97;;;16.00;99.90;;;;;;5033437;28;20028;-29
2022/09/05 02:58:16;;;;;;;8.63;7.93;;;16.00;99.90;;;;;;5030637;28;20079;-29
2022/09/05 03:01:02;;;;;;;8.20;7.60;;;16.00;99.90;;;;;;5034517;28;20044;-29
2022/09/05 03:04:15;;;;;;;8.38;7.57;;;16.00;99.90;;;;;;5018002;28;20037;-29
2022/09/05 03:07:16;;;;;;;8.02;7.43;;;15.90;99.90;;;;;;4991331;28;20030;-28
2022/09/05 03:09:54;;;;;;;8.43;7.82;;;15.90;99.90;;;;;;4975585;28;20129;-30
2022/09/05 03:12:32;;;;;;;8.05;7.40;;;15.90;99.90;;;;;;5029828;28;20046;-28
2022/09/05 03:15:37;;;;;;;8.60;7.90;;;15.80;99.90;;;;;;5028084;28;20032;-28
2022/09/05 03:18:22;;;;;;;8.90;8.10;;;15.80;99.90;;;;;;5039976;28;20406;-30
2022/09/05 03:21:28;;;;;;;9.20;8.35;;;15.80;99.90;;;;;;5031129;28;20033;-29
2022/09/05 03:24:31;;;;;;;9.27;8.38;;;15.80;99.90;;;;;;5028653;28;20044;-29
2022/09/05 03:27:54;;;;;;;8.82;8.02;;;15.80;99.90;;;;;;5034716;28;20046;-28
2022/09/05 03:30:22;;;;;;;8.85;8.02;;;15.80;99.90;;;;;;4968831;28;20130;-28
2022/09/05 03:32:52;;;;;;;8.93;8.23;;;15.70;99.90;;;;;;4971986;28;20038;-28
2022/09/05 03:35:40;;;;;;;8.68;7.97;;;15.70;99.90;;;;;;5004259;28;20055;-28
2022/09/05 03:38:21;;;;;;;8.77;8.15;;;15.70;99.90;;;;;;5034463;28;20043;-29
2022/09/05 03:41:05;;;;;;;9.18;8.30;;;15.70;99.90;;;;;;5027405;28;20410;-30
2022/09/05 03:43:52;;;;;;;10.13;9.18;;;15.70;99.90;;;;;;5033664;28;20124;-29
2022/09/05 03:46:47;;;;;;;8.95;8.15;;;15.60;99.90;;;;;;5034235;28;20045;-29
2022/09/05 03:49:25;;;;;;;9.32;8.43;;;15.60;99.90;;;;;;5031215;28;20459;-29
2022/09/05 03:52:14;;;;;;;8.73;8.02;;;15.60;99.90;;;;;;5033690;28;20037;-28
2022/09/05 03:55:07;;;;;;;9.45;8.57;;;15.60;99.90;;;;;;5026444;28;20039;-31
2022/09/05 03:58:06;;;;;;;9.55;8.65;;;15.50;99.90;;;;;;5033927;28;20059;-32
2022/09/05 04:00:35;;;;;;;9.35;8.48;;;15.50;99.90;;;;;;5037408;28;20041;-31
2022/09/05 04:03:23;;;;;;;12.95;9.40;;;15.50;99.90;;;;;;5016823;28;20045;-31
2022/09/05 04:06:10;;;;;;;10.25;9.35;;;15.50;99.90;;;;;;5051750;28;20089;-31
2022/09/05 04:09:04;;;;;;;10.02;9.23;;;15.50;99.90;;;;;;5022891;28;20046;-33
2022/09/05 04:11:29;;;;;;;10.47;9.67;;;15.40;99.90;;;;;;5050079;28;20041;-31
2022/09/05 04:14:06;;;;;;;10.18;9.32;;;15.40;99.90;;;;;;5020782;28;20045;-33
2022/09/05 04:16:56;;;;;;;9.90;9.15;;;15.40;99.90;;;;;;5031969;28;20102;-30
2022/09/05 04:19:27;;;;;;;10.25;9.35;;;15.30;99.90;;;;;;5033026;28;20307;-34
2022/09/05 04:22:01;;;;;;;10.35;9.55;;;15.30;99.90;;;;;;5039429;28;20040;-31
2022/09/05 04:24:40;;;;;;;10.48;9.52;;;15.30;99.90;;;;;;5032598;28;20095;-32
2022/09/05 04:27:45;;;;;;;10.25;9.35;;;15.30;99.90;;;;;;5033832;28;20041;-32
2022/09/05 04:30:57;;;;;;;10.55;9.68;;;15.30;99.90;;;;;;5031918;28;20041;-32
2022/09/05 04:33:26;;;;;;;10.30;9.40;;;15.20;99.90;;;;;;5034136;28;20045;-31
2022/09/05 04:36:13;;;;;;;10.20;9.25;;;15.20;99.90;;;;;;5053109;28;20041;-32
2022/09/05 04:38:42;;;;;;;10.73;9.90;;;15.20;99.90;;;;;;5033129;28;20121;-29
2022/09/05 04:41:26;;;;;;;10.65;9.75;;;15.20;99.90;;;;;;5034499;28;20127;-29
2022/09/05 04:43:57;;;;;;;11.30;10.18;;;15.10;99.90;;;;;;5033938;28;20044;-29
2022/09/05 04:46:35;;;;;;;11.20;10.20;;;15.10;99.90;;;;;;5036852;28;20039;-30
2022/09/05 04:49:10;;;;;;;10.40;9.60;;;15.10;99.90;;;;;;5037514;28;20041;-29
2022/09/05 04:52:06;;;;;;;10.88;9.98;;;15.10;99.90;;;;;;5044416;28;20040;-29
2022/09/05 04:54:49;;;;;;;10.52;9.73;;;15.10;99.90;;;;;;5037160;28;20041;-29
2022/09/05 04:57:18;;;;;;;10.50;9.60;;;15.10;99.90;;;;;;5036996;28;20039;-30
2022/09/05 04:59:53;;;;;;;11.10;10.18;;;15.00;99.90;;;;;;5037624;28;20411;-29
2022/09/05 05:02:29;;;;;;;11.77;10.60;;;15.00;99.90;;;;;;5037215;28;20521;-28
2022/09/05 05:05:01;;;;;;;11.38;10.38;;;15.00;99.90;;;;;;5034365;28;20069;-29
2022/09/05 05:07:45;;;;;;;11.07;10.07;;;15.10;99.90;;;;;;5032677;28;20041;-28
2022/09/05 05:10:17;;;;;;;;;;;15.10;99.90;;;;;;5027122;28;20111;-28
2022/09/05 05:13:04;;;;;;;12.93;10.73;;;15.00;99.90;;;;;;5018622;28;19944;-29
2022/09/05 05:15:33;;;;;;;11.75;10.75;;;15.00;99.90;;;;;;5037606;28;20083;-29
2022/09/05 05:18:14;;;;;;;13.32;10.38;;;15.00;99.90;;;;;;5037032;28;20486;-29
2022/09/05 05:20:58;;;;;;;11.75;10.63;;;15.00;99.90;;;;;;5048801;28;20037;-29
2022/09/05 05:23:40;;;;;;;11.85;10.48;;;15.00;99.90;;;;;;5036507;28;20039;-29
2022/09/05 05:26:09;;;;;;;12.48;11.27;;;15.10;99.90;;;;;;5020111;28;20045;-28
2022/09/05 05:28:44;;;;;;;12.88;11.30;;;15.10;99.90;;;;;;5012078;28;20037;-29
2022/09/05 05:31:16;;;;;;;11.80;10.77;;;15.10;99.90;;;;;;5036567;28;20399;-30
2022/09/05 05:33:49;;;;;;;11.88;10.85;;;15.20;99.90;;;;;;5040628;28;20033;-29
2022/09/05 05:36:39;;;;;;;12.57;11.30;;;15.20;99.90;;;;;;5034447;28;20199;-29
2022/09/05 05:39:23;;;;;;;12.80;11.63;;;15.20;99.90;;;;;;5034574;28;20044;-29
2022/09/05 05:41:52;;;;;;;13.20;12.00;;;15.30;99.90;;;;;;5032904;28;20071;-29
2022/09/05 05:44:26;;;;;;;13.23;12.02;;;15.30;99.90;;;;;;5034584;28;20041;-30
2022/09/05 05:47:17;;;;;;;12.23;11.07;;;15.40;99.90;;;;;;5038761;28;20037;-29
2022/09/05 05:49:58;;;;;;;12.85;11.32;;;15.40;99.90;;;;;;5035495;28;20029;-28
2022/09/05 05:52:42;;;;;;;12.65;11.65;;;15.40;99.90;;;;;;5036158;28;20040;-29
2022/09/05 05:55:31;;;;;;;13.50;12.50;;;15.40;99.90;;;;;;5036400;28;20162;-28
2022/09/05 05:58:25;;;;;;;13.55;12.43;;;15.50;99.90;;;;;;5030704;28;20037;-30
2022/09/05 06:00:54;;;;;;;12.88;11.88;;;15.50;99.90;;;;;;5035981;28;20029;-29
2022/09/05 06:03:38;;;;;;;13.48;12.25;;;15.50;99.90;;;;;;5036045;28;20049;-28
2022/09/05 06:06:07;;;;;;;12.90;11.70;;;15.60;99.90;;;;;;5036361;28;20367;-29
2022/09/05 06:08:56;;;;;;;13.07;12.02;;;15.70;99.90;;;;;;5054060;28;20061;-29
2022/09/05 06:11:41;;;;;;;12.38;11.27;;;15.70;99.90;;;;;;5030320;28;20029;-28
2022/09/05 06:14:36;;;;;;;13.07;11.73;;;15.80;99.90;;;;;;5043051;28;20044;-30
2022/09/05 06:17:19;;;;;;;11.57;10.57;;;15.90;99.90;;;;;;5035848;28;20036;-29
2022/09/05 06:20:10;;;;;;;11.90;10.82;;;15.90;99.90;;;;;;5035541;28;20044;-29
2022/09/05 06:23:05;;;;;;;12.30;11.13;;;16.00;99.90;;;;;;5034925;28;20534;-29
2022/09/05 06:25:59;;;;;;;13.07;11.63;;;16.10;99.90;;;;;;5035759;28;20032;-29
2022/09/05 06:28:46;;;;;;;12.95;11.20;;;16.20;99.90;;;;;;5024810;28;20163;-31
2022/09/05 06:31:33;;;;;;;12.68;11.68;;;16.20;99.90;;;;;;5030722;28;20099;-29
2022/09/05 06:34:20;;;;;;;11.88;10.88;;;16.30;99.90;;;;;;5030711;28;20103;-29
2022/09/05 06:37:18;;;;;;;12.63;11.63;;;16.30;99.90;;;;;;5028636;28;20551;-29
2022/09/05 06:40:05;;;;;;;13.02;11.90;;;16.40;99.90;;;;;;5000445;28;20103;-29
2022/09/05 06:42:40;;;;;;;13.07;11.88;;;16.50;99.90;;;;;;5028451;28;20068;-28
2022/09/05 06:45:23;;;;;;;13.05;11.88;;;16.60;99.90;;;;;;5035456;28;20418;-29
2022/09/05 06:47:52;;;;;;;14.35;13.07;;;16.70;99.90;;;;;;5032007;28;20520;-29
2022/09/05 06:50:22;;;;;;;13.52;12.27;;;16.80;99.90;;;;;;5040651;28;20048;-29
2022/09/05 06:53:06;;;;;;;13.07;11.68;;;16.90;99.90;;;;;;5035499;28;20449;-29
2022/09/05 06:55:50;;;;;;;;;;;17.00;99.90;;;;;;5035547;28;20064;-28
2022/09/05 06:58:53;;;;;;;15.35;13.82;;;17.10;99.90;;;;;;5033433;28;19927;-29
2022/09/05 07:01:29;;;;;;;15.63;13.95;;;17.20;99.90;;;;;;5033079;28;20063;-29
2022/09/05 07:04:37;;;;;;;14.93;13.55;;;17.30;99.90;;;;;;5032922;28;20120;-29
2022/09/05 07:07:25;;;;;;;12.75;11.60;;;17.40;99.90;;;;;;5032626;28;20051;-28
2022/09/05 07:09:54;;;;;;;14.10;12.80;;;17.50;99.90;;;;;;5045130;28;20048;-28
2022/09/05 07:12:20;;;;;;;13.68;12.57;;;17.60;99.90;;;;;;5034899;28;20437;-28
2022/09/05 07:15:00;;;;;;;13.18;11.88;;;17.70;99.90;;;;;;5036524;28;20044;-28
2022/09/05 07:17:28;;;;;;;13.07;11.88;;;17.80;99.90;;;;;;5034810;28;20094;-29
2022/09/05 07:20:00;;;;;;;16.55;13.25;;;17.90;99.90;;;;;;5034788;28;20470;-29
2022/09/05 07:22:43;;;;;;;13.30;12.05;;;18.00;99.90;;;;;;5033707;28;20049;-29
2022/09/05 07:25:16;;;;;;;13.20;12.00;;;18.10;99.90;;;;;;5035028;28;20041;-29
2022/09/05 07:27:55;;;;;;;12.55;11.27;;;18.20;99.90;;;;;;5032705;28;20268;-29
2022/09/05 07:30:21;;;;;;;12.45;11.25;;;18.40;99.90;;;;;;5035715;28;20044;-29
2022/09/05 07:32:51;;;;;;;13.13;11.57;;;18.50;99.90;;;;;;5034349;28;20032;-29
2022/09/05 07:35:30;;;;;;;15.73;12.35;;;18.60;99.90;;;;;;5028945;28;20090;-29
2022/09/05 07:38:12;;;;;;;14.65;12.30;;;18.70;99.90;;;;;;5033935;28;20473;-29
2022/09/05 07:40:45;;;;;;;12.48;11.23;;;18.90;99.90;;;;;;5033952;28;20037;-29
2022/09/05 07:43:34;;;;;;;12.18;11.05;;;19.10;99.90;;;;;;5024482;28;20387;-29
2022/09/05 07:46:02;;;;;;;12.95;11.43;;;19.40;99.90;;;;;;5029124;28;20501;-29
2022/09/05 07:48:32;;;;;;;13.57;10.63;;;19.60;99.90;;;;;;5037149;28;20076;-29
2022/09/05 07:51:02;;;;;;;14.77;12.10;;;19.90;99.90;;;;;;5029361;28;20043;-30
2022/09/05 07:53:29;;;;;;;11.38;10.18;;;20.20;99.90;;;;;;5049442;28;20466;-29
2022/09/05 07:56:01;;;;;;;14.70;11.02;;;20.50;99.90;;;;;;5033806;28;20064;-29
2022/09/05 07:58:33;;;;;;;12.00;9.70;;;20.80;99.90;;;;;;5030083;28;20040;-29
2022/09/05 08:01:00;;;;;;;12.00;10.23;;;21.10;99.90;;;;;;5032347;28;20033;-29
2022/09/05 08:03:28;;;;;;;10.68;9.65;;;21.40;99.90;;;;;;5033170;28;20036;-29
2022/09/05 08:05:59;;;;;;;13.30;10.25;;;21.80;99.90;;;;;;5033531;28;20033;-29
2022/09/05 08:08:41;;;;;;;9.85;8.88;;;22.00;99.90;;;;;;5039155;28;20390;-29
2022/09/05 08:11:13;;;;;;;10.50;9.23;;;22.30;99.90;;;;;;5033168;28;20037;-30
2022/09/05 08:14:05;;;;;;;10.27;9.32;;;22.70;99.90;;;;;;5030154;28;20068;-29
2022/09/05 08:16:33;;;;;;;13.32;10.05;;;23.00;99.90;;;;;;5022628;28;20045;-29
2022/09/05 08:19:25;;;;;;;10.40;8.77;;;23.20;99.90;;;;;;5019180;28;20116;-29
2022/09/05 08:21:53;;;;;;;10.60;9.70;;;23.40;99.90;;;;;;5025659;28;20041;-29
2022/09/05 08:24:22;;;;;;;11.50;10.30;;;23.70;99.90;;;;;;5033024;28;20037;-30
2022/09/05 08:27:12;;;;;;;10.20;9.18;;;23.80;99.90;;;;;;5041942;28;20525;-29
2022/09/05 08:29:41;;;;;;;9.52;8.63;;;24.10;99.90;;;;;;5032591;28;20405;-29
2022/09/05 08:32:31;;;;;;;9.93;9.02;;;24.30;99.70;;;;;;5033049;28;20040;-29
2022/09/05 08:35:07;;;;;;;8.75;7.88;;;24.60;98.10;;;;;;5026906;28;20367;-29
2022/09/05 08:37:33;;;;;;;10.77;8.20;;;24.70;95.40;;;;;;5033101;28;20033;-30
2022/09/05 08:40:06;;;;;;;8.88;8.00;;;25.00;96.00;;;;;;5030409;28;20036;-30
2022/09/05 08:42:32;;;;;;;;;;;25.30;94.70;;;;;;5033330;28;20076;-29
2022/09/05 08:45:04;;;;;;;9.60;8.57;;;25.60;93.80;;;;;;5034295;28;19967;-30
2022/09/05 08:47:35;;;;;;;7.80;6.43;;;26.00;94.50;;;;;;5010977;28;20041;-29
2022/09/05 08:50:39;;;;;;;10.18;6.70;;;26.20;92.90;;;;;;5033159;28;20041;-29
2022/09/05 08:53:17;;;;;;;8.07;7.28;;;26.60;87.60;;;;;;5023610;28;20048;-30
2022/09/05 08:55:48;;;;;;;8.30;7.45;;;26.90;89.10;;;;;;5031185;28;20040;-30
2022/09/05 08:58:29;;;;;;;7.50;6.80;;;27.10;89.20;;;;;;5041697;28;20041;-31
2022/09/05 09:01:12;;;;;;;10.15;7.38;;;27.20;85.80;;;;;;5033189;28;20064;-30
2022/09/05 09:03:46;;;;;;;13.95;6.70;;;27.40;79.30;;;;;;5010659;28;20045;-30
2022/09/05 09:06:20;;;;;;;11.25;6.88;;;27.50;81.10;;;;;;5051078;28;20521;-30
2022/09/05 09:09:02;;;;;;;9.27;6.45;;;27.60;76.30;;;;;;5032930;28;20526;-30
2022/09/05 09:11:44;;;;;;;8.60;6.35;;;27.80;74.70;;;;;;5032302;28;20116;-30
2022/09/05 09:14:37;;;;;;;10.68;6.80;;;28.00;72.40;;;;;;5027595;28;20049;-30
2022/09/05 09:17:27;;;;;;;11.90;6.93;;;28.10;72.30;;;;;;5033271;28;20051;-30
2022/09/05 09:20:12;;;;;;;12.52;6.78;;;28.50;71.50;;;;;;5028627;28;20037;-30
2022/09/05 09:22:49;;;;;;;11.88;6.80;;;28.70;65.90;;;;;;5033286;28;20487;-30
2022/09/05 09:25:21;;;;;;;9.73;6.50;;;28.70;69.70;;;;;;5032002;28;20033;-30
2022/09/05 09:28:20;;;;;;;10.60;6.32;;;28.90;68.30;;;;;;5025714;28;20491;-30
2022/09/05 09:30:58;;;;;;;10.02;6.15;;;28.90;66.20;;;;;;5041092;28;20045;-29
2022/09/05 09:34:07;;;;;;;10.45;6.20;;;29.20;65.50;;;;;;5040136;28;20123;-30
2022/09/05 09:36:51;;;;;;;6.30;5.32;;;29.40;64.70;;;;;;4974870;28;20045;-30
2022/09/05 09:39:26;;;;;;;11.50;7.35;;;29.50;64.60;;;;;;5034002;28;20041;-30
2022/09/05 09:42:01;;;;;;;9.90;6.18;;;29.70;64.10;;;;;;5036408;28;20517;-30
2022/09/05 09:44:45;;;;;;;7.90;5.55;;;29.80;63.40;;;;;;5045150;28;20406;-31
2022/09/05 09:47:39;;;;;;;7.60;5.68;;;30.10;62.80;;;;;;5036269;28;20094;-31
2022/09/05 09:50:25;;;;;;;8.75;6.13;;;30.20;60.50;;;;;;5036245;28;20033;-31
2022/09/05 09:53:12;;;;;;;6.80;5.15;;;30.40;59.70;;;;;;5030476;28;20045;-30
2022/09/05 09:55:39;;;;;;;5.32;4.43;;;30.80;57.40;;;;;;5041432;28;20045;-30
2022/09/05 09:58:23;;;;;;;8.77;4.90;;;30.90;59.30;;;;;;5036178;28;20094;-30
2022/09/05 10:01:20;;;;;;;5.13;4.60;;;31.30;57.00;;;;;;5040257;28;20041;-30
2022/09/05 10:04:01;;;;;;;5.15;4.63;;;31.60;55.20;;;;;;5027713;28;20084;-30
2022/09/05 10:06:26;;;;;;;9.18;4.53;;;31.70;56.50;;;;;;5033219;28;20107;-30
2022/09/05 10:09:08;;;;;;;7.03;4.90;;;32.00;55.90;;;;;;5041790;28;20482;-32
2022/09/05 10:11:49;;;;;;;7.07;4.67;;;32.00;53.60;;;;;;5038782;28;20043;-31
2022/09/05 10:14:38;;;;;;;4.78;4.15;;;32.00;52.50;;;;;;5032279;28;20285;-31
2022/09/05 10:17:09;;;;;;;5.20;4.72;;;32.00;53.20;;;;;;5033735;28;20080;-30
2022/09/05 10:19:35;;;;;;;5.53;4.20;;;31.80;51.80;;;;;;5040673;28;20083;-30
2022/09/05 10:22:32;;;;;;;7.80;3.75;;;32.00;52.50;;;;;;5035673;28;20041;-30
2022/09/05 10:25:13;;;;;;;3.50;3.17;;;32.20;53.40;;;;;;5027573;28;20041;-30
2022/09/05 10:28:04;;;;;;;7.28;3.38;;;32.20;51.60;;;;;;5032907;28;20084;-31
2022/09/05 10:30:48;;;;;;;5.20;3.55;;;32.20;50.90;;;;;;5035017;28;20130;-30
2022/09/05 10:33:45;;;;;;;4.15;3.50;;;32.30;52.20;;;;;;5016191;28;20037;-30
2022/09/05 10:36:21;;;;;;;4.25;3.83;;;32.40;51.50;;;;;;5030697;28;20082;-31
2022/09/05 10:38:59;;;;;;;4.28;3.22;;;32.60;51.60;;;;;;5036333;28;20040;-30
2022/09/05 10:42:00;;;;;;;3.83;3.05;;;32.80;51.60;;;;;;5035183;28;20040;-32
2022/09/05 10:44:47;;;;;;;3.50;3.20;;;33.30;50.90;;;;;;5016153;28;20132;-30
2022/09/05 10:47:15;;;;;;;4.30;3.55;;;33.70;49.00;;;;;;5044379;28;20513;-31
2022/09/05 10:49:46;;;;;;;3.90;3.38;;;33.80;50.50;;;;;;5034799;28;20482;-31
2022/09/05 10:52:32;;;;;;;4.13;3.25;;;34.10;49.70;;;;;;5035165;28;20068;-30
2022/09/05 10:55:20;;;;;;;3.63;3.17;;;34.30;49.20;;;;;;5035326;28;20032;-31
2022/09/05 10:58:17;;;;;;;3.55;3.00;;;34.20;47.20;;;;;;5026715;28;20326;-31
2022/09/05 11:00:54;;;;;;;4.07;3.03;;;34.30;44.70;;;;;;5024153;28;20044;-31
2022/09/05 11:03:54;;;;;;;4.38;3.15;;;33.80;44.50;;;;;;5025842;28;20045;-31
2022/09/05 11:06:41;;;;;;;3.00;2.60;;;33.70;46.00;;;;;;5025800;28;20398;-31
2022/09/05 11:09:25;;;;;;;3.22;2.92;;;33.90;43.90;;;;;;5026862;28;20079;-31
2022/09/05 11:12:13;;;;;;;2.95;2.75;;;34.10;46.60;;;;;;5026448;28;20041;-31
2022/09/05 11:14:55;;;;;;;3.28;2.80;;;34.40;44.50;;;;;;5022522;28;20400;-31
2022/09/05 11:17:41;;;;;;;2.97;2.78;;;34.90;42.90;;;;;;5032508;28;20065;-31
2022/09/05 11:20:15;;;;;;;3.03;2.45;;;34.90;42.50;;;;;;5030596;28;20083;-30
2022/09/05 11:22:45;;;;;;;5.68;2.83;;;35.10;43.70;;;;;;5027567;28;20033;-31
2022/09/05 11:25:21;;;;;;;3.05;2.03;;;35.40;42.60;;;;;;5037770;28;20116;-31
2022/09/05 11:27:53;;;;;;;2.88;1.88;;;35.20;40.90;;;;;;5023913;28;20430;-30
2022/09/05 11:30:22;;;;;;;2.60;2.40;;;35.40;41.90;;;;;;5032030;28;20029;-30
2022/09/05 11:33:17;;;;;;;4.10;2.25;;;35.50;41.30;;;;;;5032011;28;20510;-31
2022/09/05 11:35:58;;;;;;;2.80;2.30;;;35.40;42.80;;;;;;5019604;28;20045;-30
2022/09/05 11:38:38;;;;;;;3.15;2.30;;;35.50;41.80;;;;;;5014990;28;20538;-30
2022/09/05 11:41:35;;;;;;;2.30;2.20;;;35.80;42.80;;;;;;5035996;28;20045;-30
2022/09/05 11:44:29;;;;;;;3.38;2.20;;;36.20;40.80;;;;;;5022652;28;20095;-31
2022/09/05 11:47:04;;;;;;;2.72;2.53;;;36.20;39.20;;;;;;5025456;28;20045;-31
2022/09/05 11:49:57;;;;;;;3.00;2.70;;;36.30;39.40;;;;;;5027110;28;20041;-30
2022/09/05 11:52:57;;;;;;;3.03;2.50;;;36.40;39.70;;;;;;5025293;28;20041;-31
2022/09/05 11:55:38;;;;;;;4.05;2.75;;;36.40;39.10;;;;;;5031756;28;20441;-30
2022/09/05 11:58:47;;;;;;;2.80;2.60;;;35.60;40.20;;;;;;5037481;28;20491;-31
2022/09/05 12:01:26;;;;;;;4.68;2.67;;;34.70;41.10;;;;;;4966081;28;20125;-31
2022/09/05 12:04:17;;;;;;;3.75;2.75;;;34.10;42.00;;;;;;4974986;28;20042;-30
2022/09/05 12:07:04;;;;;;;4.97;2.67;;;33.40;41.40;;;;;;5014283;28;20037;-31
2022/09/05 12:10:09;;;;;;;4.32;2.70;;;32.70;44.70;;;;;;5033351;28;20041;-30
2022/09/05 12:13:03;;;;;;;3.10;2.63;;;32.70;44.60;;;;;;5038679;28;20037;-30
2022/09/05 12:15:33;;;;;;;3.22;3.00;;;32.80;43.50;;;;;;5031790;28;20041;-30
2022/09/05 12:18:27;;;;;;;4.65;3.08;;;32.50;42.40;;;;;;5033199;28;20044;-29
2022/09/05 12:21:05;;;;;;;3.05;2.70;;;32.30;41.90;;;;;;5049669;28;20033;-30
2022/09/05 12:23:55;;;;;;;3.10;2.90;;;32.50;43.20;;;;;;5033708;28;20121;-30
2022/09/05 12:26:24;;;;;;;2.88;2.65;;;33.20;42.70;;;;;;5026946;28;20037;-30
2022/09/05 12:29:02;;;;;;;4.10;2.33;;;33.30;42.30;;;;;;5033708;28;20060;-30
2022/09/05 12:31:37;;;;;;;2.80;2.60;;;33.50;42.20;;;;;;5043985;28;20757;-30
2022/09/05 12:34:17;;;;;;;3.33;2.78;;;34.00;41.00;;;;;;5033945;28;20037;-30
2022/09/05 12:36:50;;;;;;;2.65;2.45;;;34.10;41.70;;;;;;5031696;28;20486;-30
2022/09/05 12:39:43;;;;;;;3.97;2.55;;;34.90;41.60;;;;;;5035647;28;20032;-31
2022/09/05 12:42:32;;;;;;;2.75;2.55;;;35.70;41.20;;;;;;5004046;28;20499;-30
2022/09/05 12:45:25;;;;;;;3.15;2.85;;;36.60;39.00;;;;;;5033735;28;20079;-31
2022/09/05 12:48:12;;;;;;;2.95;2.70;;;36.20;38.00;;;;;;5022416;28;20039;-30
2022/09/05 12:51:18;;;;;;;3.10;2.90;;;36.70;38.30;;;;;;5033342;28;20040;-30
2022/09/05 12:53:49;;;;;;;3.17;2.47;;;37.00;38.10;;;;;;4973122;28;20117;-31
2022/09/05 12:56:17;;;;;;;2.70;2.47;;;37.20;39.10;;;;;;4977645;28;20046;-31
2022/09/05 12:58:50;;;;;;;2.50;2.28;;;37.40;38.30;;;;;;5000877;28;20045;-30
2022/09/05 13:01:32;;;;;;;4.00;2.30;;;38.00;37.70;;;;;;5026311;28;20049;-30
2022/09/05 13:04:21;;;;;;;2.70;2.50;;;38.40;35.10;;;;;;5028488;28;20414;-31
2022/09/05 13:06:59;;;;;;;4.05;2.30;;;38.80;36.50;;;;;;5028206;28;20487;-31
2022/09/05 13:09:40;;;;;;;2.28;2.00;;;39.20;36.10;;;;;;5037216;28;20113;-30
2022/09/05 13:12:12;;;;;;;3.78;2.30;;;39.80;35.90;;;;;;5036965;28;20047;-31
2022/09/05 13:14:49;;;;;;;2.88;2.55;;;39.50;34.60;;;;;;5036362;28;20392;-30
2022/09/05 13:17:15;;;;;;;2.78;2.50;;;39.60;33.30;;;;;;5036836;28;20037;-30
2022/09/05 13:19:50;;;;;;;2.50;2.30;;;39.70;33.00;;;;;;5037068;28;20516;-31
2022/09/05 13:22:20;;;;;;;2.92;2.60;;;39.70;33.90;;;;;;5036143;28;20047;-30
2022/09/05 13:24:57;;;;;;;2.85;2.38;;;39.30;33.30;;;;;;5030182;28;20025;-30
2022/09/05 13:27:30;;;;;;;2.38;2.28;;;39.20;32.90;;;;;;5031920;28;20098;-31
2022/09/05 13:30:08;;;;;;;4.50;2.40;;;39.00;33.00;;;;;;5023716;28;20064;-30
2022/09/05 13:32:49;;;;;;;3.15;2.45;;;38.60;33.50;;;;;;5036651;28;20029;-30
2022/09/05 13:35:27;;;;;;;2.72;2.53;;;38.20;33.40;;;;;;5036104;28;20389;-30
2022/09/05 13:38:08;;;;;;;2.78;2.35;;;38.10;33.90;;;;;;5036518;28;20759;-30
2022/09/05 13:40:39;;;;;;;3.23;2.37;;;38.40;34.20;;;;;;5047588;28;20042;-31
2022/09/05 13:43:07;;;;;;;2.50;2.25;;;39.10;34.90;;;;;;5035302;28;20558;-30
2022/09/05 13:45:43;;;;;;;2.40;2.20;;;39.80;33.40;;;;;;5046923;28;20099;-30
2022/09/05 13:48:21;;;;;;;2.70;2.10;;;40.10;33.30;;;;;;5036135;28;20033;-30
2022/09/05 13:50:53;;;;;;;2.55;2.13;;;40.00;32.10;;;;;;5036159;28;20124;-30
2022/09/05 13:53:33;;;;;;;2.88;1.95;;;40.00;34.00;;;;;;5036213;28;20491;-30
2022/09/05 13:56:21;;;;;;;2.35;2.15;;;40.20;33.20;;;;;;5038779;28;20047;-31
2022/09/05 13:58:52;;;;;;;2.15;1.95;;;40.10;32.30;;;;;;5032481;28;20049;-31